createdAt,value
2023-01-05T00:00:32.899Z,97539.89
2023-01-05T00:01:52.614Z,97539.40
2023-01-05T00:02:54.447Z,97541.98
2023-01-05T00:03:56.793Z,97549.45
2023-01-05T00:04:58.728Z,97548.69
2023-01-05T00:06:06.871Z,97544.50
2023-01-05T00:07:08.698Z,97537.05
2023-01-05T00:08:10.694Z,97532.25
2023-01-05T00:09:16.997Z,97528.98
2023-01-05T00:10:37.642Z,97521.09
2023-01-05T00:11:58.233Z,97523.02
2023-01-05T00:13:18.716Z,97520.06
2023-01-05T00:14:42.503Z,97532.73
2023-01-05T00:16:03.166Z,97537.97
2023-01-05T00:17:25.096Z,97533.51
2023-01-05T00:18:45.487Z,97520.50
2023-01-05T00:20:06.424Z,97517.51
2023-01-05T00:21:33.244Z,97509.66
2023-01-05T00:22:44.434Z,97520.96
2023-01-05T00:23:46.283Z,97504.80
2023-01-05T00:24:48.393Z,97514.09
2023-01-05T00:25:50.438Z,97506.80
2023-01-05T00:26:52.393Z,97510.87
2023-01-05T00:27:56.534Z,97501.80
2023-01-05T00:28:58.551Z,97504.89
2023-01-05T00:30:01.366Z,97504.14
2023-01-05T00:31:03.675Z,97498.06
2023-01-05T00:32:05.790Z,97493.18
2023-01-05T00:33:09.238Z,97493.54
2023-01-05T00:34:11.192Z,97496.92
2023-01-05T00:35:15.257Z,97492.73
2023-01-05T00:36:17.205Z,97487.84
2023-01-05T00:37:19.189Z,97505.40
2023-01-05T00:38:21.039Z,97486.59
2023-01-05T00:39:22.945Z,97491.45
2023-01-05T00:40:24.886Z,97490.91
2023-01-05T00:41:26.763Z,97496.90
2023-01-05T00:42:28.586Z,97487.94
2023-01-05T00:43:30.885Z,97493.02
2023-01-05T00:44:32.751Z,97492.38
2023-01-05T00:45:34.763Z,97488.77
2023-01-05T00:46:36.616Z,97488.55
2023-01-05T00:47:38.590Z,97490.81
2023-01-05T00:48:40.631Z,97480.28
2023-01-05T00:49:42.830Z,97474.70
2023-01-05T00:50:46.650Z,97481.89
2023-01-05T00:51:48.617Z,97477.16
2023-01-05T00:52:50.905Z,97476.41
2023-01-05T00:53:52.792Z,97477.79
2023-01-05T00:54:54.865Z,97470.70
2023-01-05T00:56:00.461Z,97468.98
2023-01-05T00:57:02.986Z,97466.92
2023-01-05T00:58:04.950Z,97465.92
2023-01-05T00:59:06.798Z,97465.54
2023-01-05T01:00:13.541Z,97467.52
2023-01-05T01:01:15.679Z,97470.48
2023-01-05T01:02:17.955Z,97471.88
2023-01-05T01:03:21.055Z,97469.30
2023-01-05T01:04:23.513Z,97472.25
2023-01-05T01:05:25.435Z,97465.09
2023-01-05T01:06:28.539Z,97466.23
2023-01-05T01:07:30.496Z,97456.11
2023-01-05T01:08:32.662Z,97458.38
2023-01-05T01:09:35.389Z,97452.89
2023-01-05T01:10:40.476Z,97463.24
2023-01-05T01:11:42.676Z,97464.10
2023-01-05T01:12:44.428Z,97454.80
2023-01-05T01:13:46.288Z,97449.59
2023-01-05T01:14:49.409Z,97446.88
2023-01-05T01:15:51.639Z,97436.84
2023-01-05T01:16:53.685Z,97441.29
2023-01-05T01:17:55.568Z,97446.25
2023-01-05T01:18:59.654Z,97445.52
2023-01-05T01:20:05.501Z,97449.50
2023-01-05T01:21:08.321Z,97456.70
2023-01-05T01:24:31.818Z,97449.42
2023-01-05T01:25:33.748Z,97443.81
2023-01-05T01:26:35.576Z,97446.39
2023-01-05T01:27:37.449Z,97441.02
2023-01-05T01:28:39.885Z,97441.31
2023-01-05T01:29:41.828Z,97437.83
2023-01-05T01:30:43.718Z,97433.12
2023-01-05T01:31:49.045Z,97430.66
2023-01-05T01:32:51.237Z,97432.86
2023-01-05T01:33:53.121Z,97433.89
2023-01-05T01:34:55.321Z,97433.09
2023-01-05T01:35:58.058Z,97433.42
2023-01-05T01:38:07.328Z,97430.31
2023-01-05T01:39:09.905Z,97424.04
2023-01-05T01:40:13.945Z,97419.69
2023-01-05T01:41:15.746Z,97420.61
2023-01-05T01:42:17.896Z,97417.98
2023-01-05T01:43:43.521Z,97415.90
2023-01-05T01:44:58.321Z,97411.50
2023-01-05T01:46:04.894Z,97412.31
2023-01-05T01:47:07.963Z,97415.81
2023-01-05T01:48:14.090Z,97414.69
2023-01-05T01:49:16.093Z,97416.30
2023-01-05T01:50:26.770Z,97418.19
2023-01-05T01:51:33.459Z,97428.92
2023-01-05T01:52:37.031Z,97423.19
2023-01-05T01:53:43.404Z,97411.21
2023-01-05T01:54:46.082Z,97408.00
2023-01-05T01:55:48.196Z,97398.17
2023-01-05T01:56:55.868Z,97399.15
2023-01-05T01:58:01.546Z,97401.45
2023-01-05T01:59:03.639Z,97396.84
2023-01-05T02:00:09.536Z,97387.29
2023-01-05T02:01:20.654Z,97381.32
2023-01-05T02:02:23.785Z,97390.45
2023-01-05T02:03:28.621Z,97392.39
2023-01-05T02:04:33.689Z,97398.34
2023-01-05T02:05:38.086Z,97388.19
2023-01-05T02:06:40.164Z,97390.38
2023-01-05T02:07:47.454Z,97397.52
2023-01-05T02:08:50.107Z,97395.36
2023-01-05T02:09:52.595Z,97388.42
2023-01-05T02:11:21.801Z,97383.39
2023-01-05T02:12:32.341Z,97378.02
2023-01-05T02:13:48.773Z,97377.31
2023-01-05T02:15:19.330Z,97383.92
2023-01-05T02:16:47.531Z,97383.28
2023-01-05T02:18:21.149Z,97385.46
2023-01-05T02:20:00.890Z,97376.80
2023-01-05T02:21:14.898Z,97373.27
2023-01-05T02:22:50.790Z,97374.23
2023-01-05T02:24:30.598Z,97372.38
2023-01-05T02:26:21.911Z,97374.42
2023-01-05T02:27:42.427Z,97373.01
2023-01-05T02:29:10.679Z,97384.16
2023-01-05T02:30:40.545Z,97375.95
2023-01-05T02:32:29.865Z,97364.45
2023-01-05T02:34:03.212Z,97369.15
2023-01-05T02:35:23.307Z,97366.73
2023-01-05T02:36:58.990Z,97366.64
2023-01-05T02:38:14.507Z,97356.98
2023-01-05T02:39:29.633Z,97353.17
2023-01-05T02:40:42.296Z,97353.73
2023-01-05T02:41:59.765Z,97355.34
2023-01-05T02:43:05.136Z,97353.29
2023-01-05T02:44:10.929Z,97348.52
2023-01-05T02:45:16.440Z,97344.02
2023-01-05T02:46:19.288Z,97340.13
2023-01-05T02:47:30.340Z,97340.46
2023-01-05T02:48:40.037Z,97323.86
2023-01-05T02:49:41.955Z,97335.24
2023-01-05T02:51:05.799Z,97351.52
2023-01-05T02:52:12.054Z,97333.14
2023-01-05T02:53:31.791Z,97335.07
2023-01-05T02:54:55.250Z,97345.58
2023-01-05T02:56:07.797Z,97330.05
2023-01-05T02:57:19.665Z,97323.45
2023-01-05T02:58:33.044Z,97320.70
2023-01-05T02:59:44.826Z,97322.33
2023-01-05T03:00:55.501Z,97315.98
2023-01-05T03:02:17.116Z,97319.54
2023-01-05T03:03:34.603Z,97324.48
2023-01-05T03:04:47.209Z,97315.77
2023-01-05T03:06:27.322Z,97328.48
2023-01-05T03:07:37.766Z,97321.84
2023-01-05T03:08:49.892Z,97325.29
2023-01-05T03:09:53.168Z,97319.72
2023-01-05T03:11:34.229Z,97313.71
2023-01-05T03:12:56.488Z,97311.58
2023-01-05T03:14:22.747Z,97314.10
2023-01-05T03:15:32.605Z,97315.89
2023-01-05T03:16:37.983Z,97317.52
2023-01-05T03:18:05.863Z,97319.55
2023-01-05T03:19:32.196Z,97315.36
2023-01-05T03:20:37.780Z,97324.17
2023-01-05T03:22:00.335Z,97312.52
2023-01-05T03:23:29.618Z,97316.17
2023-01-05T03:24:50.369Z,97319.67
2023-01-05T03:26:14.295Z,97321.92
2023-01-05T03:27:36.539Z,97324.02
2023-01-05T03:29:03.299Z,97326.19
2023-01-05T03:30:29.052Z,97326.02
2023-01-05T03:31:57.872Z,97319.38
2023-01-05T03:33:38.854Z,97313.58
2023-01-05T03:35:10.789Z,97316.63
2023-01-05T03:36:19.239Z,97313.89
2023-01-05T03:37:46.537Z,97309.18
2023-01-05T03:38:53.133Z,97307.55
2023-01-05T03:39:55.053Z,97309.05
2023-01-05T03:41:02.989Z,97312.33
2023-01-05T03:42:05.768Z,97320.11
2023-01-05T03:43:08.276Z,97319.14
2023-01-05T03:44:11.012Z,97311.30
2023-01-05T03:45:17.376Z,97312.70
2023-01-05T03:46:22.791Z,97321.25
2023-01-05T03:47:24.929Z,97325.81
2023-01-05T03:48:29.407Z,97322.98
2023-01-05T03:49:32.064Z,97321.63
2023-01-05T03:50:36.462Z,97320.23
2023-01-05T03:51:41.920Z,97314.61
2023-01-05T03:52:44.404Z,97316.56
2023-01-05T03:53:46.538Z,97316.95
2023-01-05T03:54:48.433Z,97309.55
2023-01-05T03:55:50.629Z,97306.29
2023-01-05T03:56:53.112Z,97313.38
2023-01-05T03:57:56.123Z,97314.83
2023-01-05T03:58:58.611Z,97317.30
2023-01-05T04:00:00.934Z,97311.33
2023-01-05T04:01:03.916Z,97309.73
2023-01-05T04:02:07.392Z,97312.52
2023-01-05T04:03:10.655Z,97313.60
2023-01-05T04:04:13.112Z,97312.91
2023-01-05T04:05:15.159Z,97307.81
2023-01-05T04:06:17.544Z,97307.93
2023-01-05T04:07:20.042Z,97309.92
2023-01-05T04:08:22.764Z,97315.83
2023-01-05T04:09:25.210Z,97311.95
2023-01-05T04:10:27.257Z,97308.05
2023-01-05T04:11:29.423Z,97320.82
2023-01-05T04:12:34.663Z,97315.57
2023-01-05T04:13:37.065Z,97310.10
2023-01-05T04:14:39.260Z,97315.78
2023-01-05T04:15:41.629Z,97317.11
2023-01-05T04:16:44.172Z,97310.69
2023-01-05T04:17:55.202Z,97312.78
2023-01-05T04:18:57.307Z,97310.20
2023-01-05T04:19:59.266Z,97313.26
2023-01-05T04:21:01.445Z,97317.40
2023-01-05T04:22:03.587Z,97318.05
2023-01-05T04:23:06.046Z,97319.27
2023-01-05T04:24:11.031Z,97319.81
2023-01-05T04:25:13.947Z,97318.42
2023-01-05T04:26:17.794Z,97315.04
2023-01-05T04:27:23.306Z,97315.19
2023-01-05T04:28:26.743Z,97317.87
2023-01-05T04:29:30.277Z,97318.99
2023-01-05T04:30:32.854Z,97318.86
2023-01-05T04:31:35.064Z,97320.85
2023-01-05T04:32:37.484Z,97322.57
2023-01-05T04:33:40.187Z,97323.30
2023-01-05T04:34:42.667Z,97324.48
2023-01-05T04:35:44.718Z,97324.92
2023-01-05T04:36:48.153Z,97325.11
2023-01-05T04:37:50.856Z,97335.23
2023-01-05T04:38:52.806Z,97332.07
2023-01-05T04:39:55.315Z,97326.86
2023-01-05T04:40:57.455Z,97327.55
2023-01-05T04:42:00.341Z,97337.73
2023-01-05T04:43:03.396Z,97337.52
2023-01-05T04:44:05.791Z,97339.11
2023-01-05T04:45:08.381Z,97340.30
2023-01-05T04:46:11.320Z,97336.81
2023-01-05T04:47:13.280Z,97333.70
2023-01-05T04:48:17.329Z,97339.42
2023-01-05T04:49:19.818Z,97342.86
2023-01-05T04:50:24.222Z,97340.71
2023-01-05T04:51:26.425Z,97346.23
2023-01-05T04:52:28.461Z,97344.23
2023-01-05T04:53:30.642Z,97343.86
2023-01-05T04:54:32.966Z,97346.60
2023-01-05T04:55:35.090Z,97352.13
2023-01-05T04:56:38.449Z,97346.16
2023-01-05T04:57:41.331Z,97346.85
2023-01-05T04:58:43.978Z,97348.52
2023-01-05T04:59:46.044Z,97346.05
2023-01-05T05:00:50.926Z,97346.64
2023-01-05T05:01:53.204Z,97339.71
2023-01-05T05:02:55.623Z,97344.52
2023-01-05T05:03:58.336Z,97341.30
2023-01-05T05:05:00.903Z,97341.90
2023-01-05T05:06:02.802Z,97342.81
2023-01-05T05:07:05.130Z,97339.37
2023-01-05T05:08:07.447Z,97338.14
2023-01-05T05:09:10.083Z,97335.27
2023-01-05T05:10:13.063Z,97341.82
2023-01-05T05:11:16.562Z,97338.05
2023-01-05T05:12:20.914Z,97337.39
2023-01-05T05:13:25.296Z,97335.36
2023-01-05T05:14:27.964Z,97337.98
2023-01-05T05:15:32.834Z,97342.05
2023-01-05T05:16:36.193Z,97339.10
2023-01-05T05:17:38.647Z,97341.40
2023-01-05T05:18:40.461Z,97335.64
2023-01-05T05:19:45.530Z,97341.42
2023-01-05T05:20:51.397Z,97337.83
2023-01-05T05:21:53.486Z,97331.76
2023-01-05T05:22:55.709Z,97330.95
2023-01-05T05:23:58.055Z,97334.55
2023-01-05T05:24:59.872Z,97339.37
2023-01-05T05:26:01.999Z,97336.10
2023-01-05T05:27:04.787Z,97332.45
2023-01-05T05:28:06.880Z,97335.84
2023-01-05T05:29:08.798Z,97334.83
2023-01-05T05:30:11.512Z,97342.02
2023-01-05T05:31:13.376Z,97337.84
2023-01-05T05:32:15.550Z,97341.79
2023-01-05T05:33:17.553Z,97340.77
2023-01-05T05:34:20.228Z,97336.11
2023-01-05T05:35:22.161Z,97331.98
2023-01-05T05:36:24.017Z,97346.25
2023-01-05T05:37:25.895Z,97344.27
2023-01-05T05:38:28.005Z,97344.96
2023-01-05T05:39:30.203Z,97346.35
2023-01-05T05:40:32.188Z,97345.06
2023-01-05T05:41:34.445Z,97347.42
2023-01-05T05:42:36.449Z,97344.05
2023-01-05T05:43:38.540Z,97341.63
2023-01-05T05:44:40.300Z,97347.31
2023-01-05T05:45:49.540Z,97341.14
2023-01-05T05:46:52.007Z,97343.11
2023-01-05T05:47:54.136Z,97340.11
2023-01-05T05:48:58.651Z,97342.46
2023-01-05T05:50:00.655Z,97341.66
2023-01-05T05:51:02.577Z,97344.02
2023-01-05T05:52:04.657Z,97338.05
2023-01-05T05:53:07.025Z,97341.55
2023-01-05T05:54:09.005Z,97343.05
2023-01-05T05:55:10.823Z,97342.47
2023-01-05T05:56:12.744Z,97350.10
2023-01-05T05:57:15.063Z,97347.59
2023-01-05T05:58:20.375Z,97347.65
2023-01-05T05:59:22.382Z,97351.73
2023-01-05T06:00:24.240Z,97345.60
2023-01-05T06:01:26.257Z,97346.20
2023-01-05T06:02:28.534Z,97342.09
2023-01-05T06:03:30.666Z,97344.13
2023-01-05T06:04:32.545Z,97341.06
2023-01-05T06:05:34.531Z,97341.55
2023-01-05T06:06:36.373Z,97339.55
2023-01-05T06:07:38.292Z,97339.38
2023-01-05T06:08:40.570Z,97338.67
2023-01-05T06:09:42.492Z,97346.16
2023-01-05T06:10:44.508Z,97347.87
2023-01-05T06:11:46.727Z,97339.98
2023-01-05T06:12:48.624Z,97345.40
2023-01-05T06:13:50.478Z,97345.30
2023-01-05T06:14:52.242Z,97342.84
2023-01-05T06:15:54.730Z,97344.17
2023-01-05T06:16:56.730Z,97339.23
2023-01-05T06:17:58.678Z,97338.98
2023-01-05T06:19:01.486Z,97344.41
2023-01-05T06:20:04.420Z,97343.55
2023-01-05T06:21:07.498Z,97342.96
2023-01-05T06:22:09.230Z,97337.83
2023-01-05T06:23:11.154Z,97344.37
2023-01-05T06:24:13.065Z,97337.92
2023-01-05T06:25:15.034Z,97339.81
2023-01-05T06:26:16.805Z,97341.28
2023-01-05T06:27:18.983Z,97340.80
2023-01-05T06:28:20.956Z,97342.63
2023-01-05T06:29:22.756Z,97341.90
2023-01-05T06:30:25.045Z,97347.60
2023-01-05T06:31:27.192Z,97343.31
2023-01-05T06:32:29.193Z,97343.88
2023-01-05T06:33:30.974Z,97345.23
2023-01-05T06:34:32.843Z,97345.16
2023-01-05T06:35:34.679Z,97344.89
2023-01-05T06:36:36.559Z,97347.27
2023-01-05T06:37:38.340Z,97352.32
2023-01-05T06:38:40.163Z,97341.94
2023-01-05T06:39:42.556Z,97337.64
2023-01-05T06:40:46.658Z,97352.73
2023-01-05T06:41:48.471Z,97349.81
2023-01-05T06:42:50.244Z,97347.71
2023-01-05T06:43:52.095Z,97341.75
2023-01-05T06:44:54.344Z,97343.47
2023-01-05T06:45:56.422Z,97346.52
2023-01-05T06:46:58.330Z,97347.38
2023-01-05T06:48:01.155Z,97341.63
2023-01-05T06:49:03.001Z,97341.20
2023-01-05T06:50:05.697Z,97344.85
2023-01-05T06:51:07.561Z,97344.41
2023-01-05T06:52:15.800Z,97348.02
2023-01-05T06:53:18.362Z,97348.99
2023-01-05T06:54:20.534Z,97347.76
2023-01-05T06:55:22.478Z,97341.69
2023-01-05T06:56:24.250Z,97349.16
2023-01-05T06:57:26.017Z,97347.18
2023-01-05T06:58:27.814Z,97352.16
2023-01-05T06:59:29.568Z,97354.56
2023-01-05T07:00:32.665Z,97354.41
2023-01-05T07:01:34.633Z,97354.42
2023-01-05T07:02:36.697Z,97354.63
2023-01-05T07:03:38.658Z,97354.79
2023-01-05T07:04:40.609Z,97357.80
2023-01-05T07:05:42.542Z,97361.20
2023-01-05T07:06:44.852Z,97363.63
2023-01-05T07:07:46.597Z,97358.95
2023-01-05T07:08:48.593Z,97362.51
2023-01-05T07:09:50.440Z,97365.52
2023-01-05T07:10:52.370Z,97363.95
2023-01-05T07:11:54.124Z,97370.56
2023-01-05T07:12:56.497Z,97371.70
2023-01-05T07:13:58.270Z,97368.89
2023-01-05T07:14:59.995Z,97368.73
2023-01-05T07:16:02.320Z,97365.99
2023-01-05T07:17:04.436Z,97367.28
2023-01-05T07:18:06.211Z,97372.11
2023-01-05T07:19:08.113Z,97368.27
2023-01-05T07:20:10.109Z,97372.55
2023-01-05T07:21:11.992Z,97374.28
2023-01-05T07:22:13.772Z,97369.17
2023-01-05T07:23:15.475Z,97372.06
2023-01-05T07:24:17.269Z,97368.41
2023-01-05T07:25:19.228Z,97374.14
2023-01-05T07:26:21.136Z,97375.11
2023-01-05T07:27:22.968Z,97377.05
2023-01-05T07:28:24.728Z,97379.49
2023-01-05T07:29:27.250Z,97376.77
2023-01-05T07:30:29.002Z,97379.06
2023-01-05T07:31:30.874Z,97380.46
2023-01-05T07:32:32.859Z,97382.54
2023-01-05T07:33:39.880Z,97382.70
2023-01-05T07:34:47.586Z,97381.17
2023-01-05T07:35:53.156Z,97386.02
2023-01-05T07:36:54.949Z,97381.40
2023-01-05T07:37:57.405Z,97379.45
2023-01-05T07:38:59.706Z,97379.86
2023-01-05T07:40:01.599Z,97375.67
2023-01-05T07:41:03.760Z,97379.27
2023-01-05T07:42:05.854Z,97374.95
2023-01-05T07:43:08.164Z,97374.95
2023-01-05T07:44:10.003Z,97372.30
2023-01-05T07:45:11.757Z,97373.54
2023-01-05T07:46:13.628Z,97371.79
2023-01-05T07:47:15.507Z,97367.38
2023-01-05T07:48:23.233Z,97373.96
2023-01-05T07:49:25.584Z,97373.05
2023-01-05T07:50:27.439Z,97370.67
2023-01-05T07:51:30.163Z,97373.09
2023-01-05T07:52:33.183Z,97369.33
2023-01-05T07:53:43.875Z,97377.08
2023-01-05T07:54:46.517Z,97366.52
2023-01-05T07:56:01.980Z,97373.45
2023-01-05T07:57:04.060Z,97372.38
2023-01-05T07:58:05.871Z,97377.75
2023-01-05T07:59:07.838Z,97383.39
2023-01-05T08:00:10.997Z,97388.03
2023-01-05T08:01:18.507Z,97380.29
2023-01-05T08:02:20.854Z,97383.17
2023-01-05T08:03:23.239Z,97380.05
2023-01-05T08:04:25.154Z,97380.26
2023-01-05T08:05:30.509Z,97385.71
2023-01-05T08:06:34.116Z,97386.34
2023-01-05T08:07:36.613Z,97384.06
2023-01-05T08:08:38.617Z,97391.80
2023-01-05T08:09:59.544Z,97383.52
2023-01-05T08:11:09.412Z,97388.48
2023-01-05T08:12:11.206Z,97398.31
2023-01-05T08:13:31.670Z,97395.80
2023-01-05T08:14:33.464Z,97405.82
2023-01-05T08:15:35.356Z,97402.20
2023-01-05T08:16:37.200Z,97401.96
2023-01-05T08:17:41.159Z,97401.48
2023-01-05T08:18:42.952Z,97400.85
2023-01-05T08:19:44.739Z,97403.75
2023-01-05T08:20:55.514Z,97408.54
2023-01-05T08:21:57.632Z,97399.65
2023-01-05T08:22:59.488Z,97410.12
2023-01-05T08:24:01.719Z,97406.26
2023-01-05T08:25:04.340Z,97407.10
2023-01-05T08:26:12.236Z,97404.58
2023-01-05T08:27:14.166Z,97400.21
2023-01-05T08:28:16.465Z,97408.74
2023-01-05T08:29:18.813Z,97403.74
2023-01-05T08:30:21.061Z,97405.52
2023-01-05T08:31:26.236Z,97411.63
2023-01-05T08:32:28.145Z,97413.67
2023-01-05T08:33:30.068Z,97412.54
2023-01-05T08:34:34.884Z,97407.60
2023-01-05T08:35:44.634Z,97409.52
2023-01-05T08:36:46.837Z,97407.64
2023-01-05T08:37:48.546Z,97413.05
2023-01-05T08:38:55.108Z,97413.27
2023-01-05T08:39:57.575Z,97415.84
2023-01-05T08:41:00.658Z,97411.97
2023-01-05T08:42:03.083Z,97416.73
2023-01-05T08:43:06.613Z,97413.40
2023-01-05T08:44:13.387Z,97412.88
2023-01-05T08:45:16.147Z,97415.77
2023-01-05T08:46:19.200Z,97412.38
2023-01-05T08:47:26.514Z,97410.17
2023-01-05T08:48:29.966Z,97413.30
2023-01-05T08:49:31.727Z,97413.80
2023-01-05T08:50:33.705Z,97417.29
2023-01-05T08:51:36.421Z,97422.25
2023-01-05T08:52:38.617Z,97414.42
2023-01-05T08:53:40.574Z,97421.45
2023-01-05T08:54:43.905Z,97420.66
2023-01-05T08:55:45.759Z,97420.29
2023-01-05T08:56:50.780Z,97422.48
2023-01-05T08:57:53.086Z,97428.38
2023-01-05T08:58:59.465Z,97430.02
2023-01-05T09:00:01.557Z,97427.91
2023-01-05T09:01:11.906Z,97431.64
2023-01-05T09:02:13.948Z,97431.89
2023-01-05T09:03:16.062Z,97435.11
2023-01-05T09:04:18.423Z,97434.52
2023-01-05T09:05:20.543Z,97430.60
2023-01-05T09:06:22.923Z,97435.81
2023-01-05T09:07:24.756Z,97437.38
2023-01-05T09:08:26.903Z,97441.73
2023-01-05T09:09:28.721Z,97446.27
2023-01-05T09:10:30.550Z,97439.29
2023-01-05T09:11:33.458Z,97446.98
2023-01-05T09:12:36.583Z,97442.73
2023-01-05T09:13:39.955Z,97447.80
2023-01-05T09:14:41.797Z,97447.36
2023-01-05T09:15:43.608Z,97442.96
2023-01-05T09:18:07.764Z,97442.66
2023-01-05T09:19:10.091Z,97442.01
2023-01-05T09:20:12.033Z,97442.06
2023-01-05T09:21:14.197Z,97435.40
2023-01-05T09:22:15.897Z,97439.39
2023-01-05T09:23:17.850Z,97442.45
2023-01-05T09:24:20.225Z,97446.63
2023-01-05T09:25:22.154Z,97440.80
2023-01-05T09:26:24.043Z,97434.87
2023-01-05T09:27:25.765Z,97435.60
2023-01-05T09:28:27.635Z,97435.83
2023-01-05T09:29:29.432Z,97435.70
2023-01-05T09:30:36.023Z,97432.35
2023-01-05T09:31:43.902Z,97436.56
2023-01-05T09:32:45.745Z,97434.52
2023-01-05T09:33:48.941Z,97435.14
2023-01-05T09:34:50.680Z,97435.30
2023-01-05T09:35:56.471Z,97440.53
2023-01-05T09:36:58.378Z,97437.70
2023-01-05T09:38:00.542Z,97439.45
2023-01-05T09:39:04.623Z,97444.73
2023-01-05T09:40:07.444Z,97437.89
2023-01-05T09:41:34.185Z,97439.98
2023-01-05T09:42:44.428Z,97438.41
2023-01-05T09:43:52.419Z,97446.37
2023-01-05T09:45:08.698Z,97442.88
2023-01-05T09:46:25.009Z,97443.98
2023-01-05T09:47:36.236Z,97445.06
2023-01-05T09:48:46.637Z,97449.31
2023-01-05T09:49:50.653Z,97447.60
2023-01-05T09:50:53.800Z,97450.34
2023-01-05T09:52:01.794Z,97445.50
2023-01-05T09:53:05.961Z,97443.19
2023-01-05T09:54:17.472Z,97442.75
2023-01-05T09:55:23.421Z,97451.45
2023-01-05T09:58:02.984Z,97445.62
2023-01-05T09:59:18.898Z,97444.77
2023-01-05T10:00:24.159Z,97445.66
2023-01-05T10:01:26.211Z,97444.02
2023-01-05T10:02:37.471Z,97441.88
2023-01-05T10:04:05.121Z,97446.40
2023-01-05T10:05:10.570Z,97445.73
2023-01-05T10:06:15.157Z,97441.01
2023-01-05T10:07:29.867Z,97439.92
2023-01-05T10:08:41.215Z,97445.77
2023-01-05T10:09:46.291Z,97441.41
2023-01-05T10:11:16.609Z,97441.36
2023-01-05T10:12:45.333Z,97435.38
2023-01-05T10:14:03.280Z,97440.39
2023-01-05T10:15:20.823Z,97442.89
2023-01-05T10:16:29.090Z,97442.70
2023-01-05T10:17:44.213Z,97444.55
2023-01-05T10:18:47.566Z,97447.48
2023-01-05T10:19:50.654Z,97445.11
2023-01-05T10:21:12.476Z,97446.08
2023-01-05T10:22:35.160Z,97447.17
2023-01-05T10:24:02.348Z,97441.52
2023-01-05T10:25:46.410Z,97443.24
2023-01-05T10:27:28.685Z,97443.88
2023-01-05T10:28:40.159Z,97440.55
2023-01-05T10:29:46.382Z,97441.10
2023-01-05T10:30:59.585Z,97436.36
2023-01-05T10:32:17.039Z,97442.45
2023-01-05T10:33:39.108Z,97442.83
2023-01-05T10:35:02.673Z,97443.30
2023-01-05T10:36:41.345Z,97442.98
2023-01-05T10:38:13.452Z,97439.23
2023-01-05T10:40:20.953Z,97440.83
2023-01-05T10:42:06.320Z,97442.77
2023-01-05T10:43:24.078Z,97443.99
2023-01-05T10:44:28.847Z,97445.34
2023-01-05T10:45:32.362Z,97443.22
2023-01-05T10:46:47.191Z,97439.56
2023-01-05T10:47:52.660Z,97441.39
2023-01-05T10:48:54.957Z,97439.97
2023-01-05T10:49:59.305Z,97442.81
2023-01-05T10:51:02.658Z,97441.40
2023-01-05T10:52:09.562Z,97439.77
2023-01-05T10:53:15.266Z,97437.96
2023-01-05T10:54:33.125Z,97438.95
2023-01-05T10:55:45.534Z,97443.98
2023-01-05T10:56:47.385Z,97441.48
2023-01-05T10:57:49.049Z,97442.76
2023-01-05T10:59:15.452Z,97440.61
2023-01-05T11:00:21.446Z,97439.04
2023-01-05T11:01:27.910Z,97441.90
2023-01-05T11:02:35.555Z,97441.74
2023-01-05T11:05:25.470Z,97443.17
2023-01-05T11:06:31.447Z,97444.30
2023-01-05T11:07:50.981Z,97449.44
2023-01-05T11:08:53.506Z,97445.17
2023-01-05T11:09:55.609Z,97449.83
2023-01-05T11:10:58.734Z,97446.14
2023-01-05T11:12:03.392Z,97446.00
2023-01-05T11:13:31.005Z,97440.27
2023-01-05T11:14:42.528Z,97444.75
2023-01-05T11:15:54.117Z,97449.75
2023-01-05T11:17:06.342Z,97438.75
2023-01-05T11:18:30.919Z,97439.01
2023-01-05T11:19:40.658Z,97431.68
2023-01-05T11:21:13.892Z,97434.71
2023-01-05T11:22:37.242Z,97435.25
2023-01-05T11:23:42.415Z,97440.93
2023-01-05T11:24:45.571Z,97437.94
2023-01-05T11:25:47.352Z,97441.30
2023-01-05T11:26:55.335Z,97452.25
2023-01-05T11:28:16.541Z,97450.61
2023-01-05T11:29:19.457Z,97450.11
2023-01-05T11:30:24.631Z,97457.70
2023-01-05T11:31:42.986Z,97456.70
2023-01-05T11:32:47.030Z,97460.83
2023-01-05T11:33:58.414Z,97465.48
2023-01-05T11:35:01.321Z,97463.77
2023-01-05T11:36:07.004Z,97462.20
2023-01-05T11:37:24.318Z,97459.60
2023-01-05T11:38:29.332Z,97464.27
2023-01-05T11:39:39.071Z,97463.33
2023-01-05T11:40:43.912Z,97461.60
2023-01-05T11:41:45.727Z,97467.19
2023-01-05T11:44:44.024Z,97476.98
2023-01-05T11:45:52.232Z,97474.14
2023-01-05T11:46:54.533Z,97473.32
2023-01-05T11:48:02.056Z,97472.48
2023-01-05T11:49:04.026Z,97469.07
2023-01-05T11:50:15.441Z,97478.75
2023-01-05T11:51:40.671Z,97484.46
2023-01-05T11:52:50.709Z,97480.62
2023-01-05T11:53:52.466Z,97483.00
2023-01-05T11:54:54.321Z,97484.04
2023-01-05T11:56:18.299Z,97488.98
2023-01-05T11:57:25.928Z,97480.73
2023-01-05T11:58:33.530Z,97478.49
2023-01-05T11:59:37.958Z,97482.27
2023-01-05T12:01:18.336Z,97481.63
2023-01-05T12:03:04.639Z,97482.89
2023-01-05T12:04:22.433Z,97478.83
2023-01-05T12:05:36.600Z,97480.27
2023-01-05T12:07:09.142Z,97480.91
2023-01-05T12:08:23.887Z,97474.75
2023-01-05T12:09:35.336Z,97462.92
2023-01-05T12:10:59.295Z,97466.60
2023-01-05T12:12:34.832Z,97469.55
2023-01-05T12:13:47.107Z,97460.80
2023-01-05T12:14:55.138Z,97463.23
2023-01-05T12:16:15.062Z,97462.27
2023-01-05T12:17:28.755Z,97460.34
2023-01-05T12:18:52.227Z,97453.56
2023-01-05T12:20:32.724Z,97454.83
2023-01-05T12:21:45.657Z,97456.51
2023-01-05T12:23:06.088Z,97457.80
2023-01-05T12:24:29.796Z,97460.36
2023-01-05T12:25:49.944Z,97465.70
2023-01-05T12:27:36.530Z,97467.50
2023-01-05T12:33:35.420Z,97467.91
2023-01-05T12:34:01.313Z,97466.86
2023-01-05T12:34:45.380Z,97460.79
2023-01-05T12:35:59.729Z,97455.45
2023-01-05T12:37:36.321Z,97458.91
2023-01-05T12:39:03.694Z,97456.10
2023-01-05T12:40:16.281Z,97448.22
2023-01-05T12:41:39.305Z,97453.23
2023-01-05T12:42:59.072Z,97461.33
2023-01-05T12:44:20.072Z,97462.06
2023-01-05T12:45:50.134Z,97465.48
2023-01-05T12:47:00.977Z,97468.95
2023-01-05T12:48:12.167Z,97462.31
2023-01-05T12:49:32.783Z,97464.10
2023-01-05T12:51:04.928Z,97466.88
2023-01-05T12:52:22.625Z,97462.59
2023-01-05T12:53:36.480Z,97459.20
2023-01-05T12:54:47.559Z,97452.53
2023-01-05T12:55:57.495Z,97465.80
2023-01-05T12:57:13.189Z,97461.16
2023-01-05T12:58:32.428Z,97462.86
2023-01-05T13:00:04.636Z,97466.60
2023-01-05T13:01:20.929Z,97461.18
2023-01-05T13:02:36.850Z,97466.70
2023-01-05T13:03:51.396Z,97471.01
2023-01-05T13:05:00.072Z,97467.05
2023-01-05T13:06:14.960Z,97472.76
2023-01-05T13:07:27.484Z,97467.62
2023-01-05T13:08:45.044Z,97471.45
2023-01-05T13:10:02.083Z,97476.29
2023-01-05T13:11:31.170Z,97469.36
2023-01-05T13:12:37.371Z,97474.05
2023-01-05T13:14:15.886Z,97476.21
2023-01-05T13:15:29.488Z,97474.94
2023-01-05T13:16:58.782Z,97473.50
2023-01-05T13:18:06.073Z,97472.92
2023-01-05T13:19:35.986Z,97480.39
2023-01-05T13:20:50.939Z,97490.30
2023-01-05T13:21:55.331Z,97493.21
2023-01-05T13:23:06.655Z,97489.10
2023-01-05T13:24:28.576Z,97486.54
2023-01-05T13:25:40.519Z,97490.48
2023-01-05T13:26:42.353Z,97491.09
2023-01-05T13:27:44.249Z,97490.29
2023-01-05T13:28:48.879Z,97489.27
2023-01-05T13:29:59.380Z,97494.34
2023-01-05T13:31:36.240Z,97495.76
2023-01-05T13:32:59.492Z,97495.19